Weather at Mesa Lutheran Hospital Heliport [CLOSED]

Public forecast

Using degrees Fahrenheit for public forecast. Weather courtesy of forecast.io.

Closest aviation weather report (METAR) to Mesa Lutheran Hospital Heliport

Report is more than 6 hours old.

Closest report is Falcon Field, 5.9 nm (11.0 km) ENE.

2024/07/21 23:54 (retrieved 1 day ago)

KFFZ 222354Z AUTO VRB05KT 10SM CLR 42/14 A2973 RMK AO2 LTG DSNT NE SLP039 T04170144 10417 20367 56025

Closest aviation forecast (TAF) to Mesa Lutheran Hospital Heliport

Closest forecast is Luke Air Force Base, 27.8 nm (51.4 km) WNW.

2024/07/22 20:00 (retrieved 4 hours ago)

TAF KLUF 222000Z 2220/2402 21009KT 9999 FEW120 FEW250 QNH2969INS TEMPO 2300/2303 VRB15G25KT 9000 -SHRA VCTS SCT100CB 520007 BECMG 2303/2304 VRB06KT 9999 FEW120 FEW250 QNH2974INS BECMG 2319/2320 21009KT 9999 FEW130 SCT250 QNH2971INS TX43/2222Z TN30/2312Z